createdAt,value
2022-09-01T00:00:13.650Z,13.56
2022-09-01T00:03:02.264Z,13.52
2022-09-01T00:05:33.362Z,13.49
2022-09-01T00:08:01.286Z,13.47
2022-09-01T00:10:29.425Z,13.44
2022-09-01T00:12:57.672Z,13.40
2022-09-01T00:15:26.481Z,13.36
2022-09-01T00:17:54.545Z,13.34
2022-09-01T00:20:22.656Z,13.31
2022-09-01T00:22:50.763Z,13.28
2022-09-01T00:25:20.514Z,13.24
2022-09-01T00:27:49.957Z,13.21
2022-09-01T00:30:19.807Z,13.17
2022-09-01T00:32:48.481Z,13.13
2022-09-01T00:35:19.710Z,13.08
2022-09-01T00:37:48.043Z,13.03
2022-09-01T00:40:17.928Z,12.98
2022-09-01T00:42:50.204Z,12.93
2022-09-01T00:45:20.352Z,12.88
2022-09-01T00:47:51.061Z,12.84
2022-09-01T00:50:20.574Z,12.80
2022-09-01T00:52:53.102Z,12.75
2022-09-01T00:55:29.467Z,12.71
2022-09-01T00:58:00.557Z,12.67
2022-09-01T01:00:31.560Z,12.64
2022-09-01T01:02:59.585Z,12.59
2022-09-01T01:05:34.429Z,12.54
2022-09-01T01:08:04.358Z,12.50
2022-09-01T01:10:36.780Z,12.46
2022-09-01T01:13:15.501Z,12.41
2022-09-01T01:15:45.053Z,12.39
2022-09-01T01:18:17.077Z,12.33
2022-09-01T01:21:41.285Z,12.28
2022-09-01T01:24:24.548Z,12.72
2022-09-01T01:26:53.693Z,13.17
2022-09-01T01:29:22.061Z,13.02
2022-09-01T01:31:54.049Z,12.90
2022-09-01T01:34:23.668Z,13.09
2022-09-01T01:36:53.472Z,13.07
2022-09-01T01:39:25.738Z,13.03
2022-09-01T01:41:55.892Z,13.35
2022-09-01T01:44:28.519Z,13.89
2022-09-01T01:47:08.563Z,14.34
2022-09-01T01:49:38.100Z,14.33
2022-09-01T01:52:08.053Z,14.07
2022-09-01T01:54:37.716Z,13.88
2022-09-01T01:57:05.905Z,13.52
2022-09-01T01:59:35.099Z,13.29
2022-09-01T02:02:04.113Z,13.90
2022-09-01T02:04:34.368Z,14.78
2022-09-01T02:07:13.246Z,15.39
2022-09-01T02:09:46.264Z,15.71
2022-09-01T02:12:19.848Z,15.71
2022-09-01T02:14:50.334Z,15.98
2022-09-01T02:17:18.744Z,16.39
2022-09-01T02:19:48.614Z,16.51
2022-09-01T02:22:20.056Z,16.35
2022-09-01T02:24:49.432Z,16.23
2022-09-01T02:27:28.767Z,16.12
2022-09-01T02:29:59.030Z,16.15
2022-09-01T02:32:27.256Z,16.18
2022-09-01T02:34:57.331Z,15.91
2022-09-01T02:37:25.458Z,15.57
2022-09-01T02:39:57.728Z,15.18
2022-09-01T02:42:29.725Z,14.81
2022-09-01T02:44:58.808Z,14.56
2022-09-01T02:47:29.686Z,14.20
2022-09-01T02:50:02.144Z,13.88
2022-09-01T02:52:37.172Z,13.58
2022-09-01T02:55:06.887Z,13.33
2022-09-01T02:57:36.125Z,13.08
2022-09-01T03:00:20.947Z,12.90
2022-09-01T03:02:52.702Z,12.91
2022-09-01T03:05:28.952Z,12.86
2022-09-01T03:08:00.853Z,12.96
2022-09-01T03:10:33.724Z,13.00
2022-09-01T03:13:11.143Z,12.89
2022-09-01T03:15:40.115Z,12.66
2022-09-01T03:18:10.004Z,12.46
2022-09-01T03:20:43.828Z,12.66
2022-09-01T03:23:19.289Z,13.77
2022-09-01T03:25:52.429Z,14.49
2022-09-01T03:28:21.484Z,14.58
2022-09-01T03:30:52.557Z,14.24
2022-09-01T03:33:23.125Z,13.85
2022-09-01T03:35:51.410Z,13.48
2022-09-01T03:38:24.626Z,13.08
2022-09-01T03:41:01.041Z,12.78
2022-09-01T03:43:36.020Z,12.54
2022-09-01T03:46:05.360Z,12.35
2022-09-01T03:48:33.585Z,12.33
2022-09-01T03:51:02.966Z,12.33
2022-09-01T03:53:43.484Z,12.15
2022-09-01T03:56:14.428Z,12.12
2022-09-01T03:58:47.594Z,12.02
2022-09-01T04:01:18.792Z,11.82
2022-09-01T04:03:49.347Z,11.71
2022-09-01T04:06:22.098Z,11.61
2022-09-01T04:08:56.043Z,11.53
2022-09-01T04:11:24.385Z,11.46
2022-09-01T04:13:53.953Z,11.40
2022-09-01T04:16:46.778Z,11.35
2022-09-01T04:19:21.032Z,11.31
2022-09-01T04:21:52.285Z,11.29
2022-09-01T04:24:24.309Z,11.25
2022-09-01T04:26:55.398Z,11.22
2022-09-01T04:29:29.487Z,11.21
2022-09-01T04:32:09.504Z,11.19
2022-09-01T04:34:41.795Z,11.19
2022-09-01T04:37:15.827Z,11.17
2022-09-01T04:39:56.890Z,11.16
2022-09-01T04:42:29.298Z,11.16
2022-09-01T04:45:10.583Z,11.17
2022-09-01T04:47:45.699Z,11.18
2022-09-01T04:50:18.500Z,11.21
2022-09-01T04:53:06.955Z,11.24
2022-09-01T04:55:50.286Z,11.28
2022-09-01T04:58:23.734Z,11.34
2022-09-01T05:00:56.078Z,11.41
2022-09-01T05:03:24.960Z,11.48
2022-09-01T05:06:01.251Z,11.55
2022-09-01T05:08:32.751Z,11.61
2022-09-01T05:11:06.239Z,11.68
2022-09-01T05:13:40.561Z,11.75
2022-09-01T05:16:13.366Z,11.81
2022-09-01T05:18:46.437Z,11.87
2022-09-01T05:21:22.506Z,11.93
2022-09-01T05:23:52.133Z,12.01
2022-09-01T05:26:28.371Z,12.07
2022-09-01T05:28:59.749Z,12.14
2022-09-01T05:31:38.022Z,12.15
2022-09-01T05:34:10.775Z,12.18
2022-09-01T05:36:44.775Z,12.24
2022-09-01T05:39:13.478Z,12.30
2022-09-01T05:41:41.528Z,12.38
2022-09-01T05:44:11.418Z,12.47
2022-09-01T05:46:40.524Z,12.56
2022-09-01T05:49:13.722Z,12.63
2022-09-01T05:51:45.952Z,12.72
2022-09-01T05:54:23.426Z,12.81
2022-09-01T05:56:53.802Z,12.90
2022-09-01T05:59:26.702Z,13.00
2022-09-01T06:02:09.160Z,13.11
2022-09-01T06:04:42.369Z,13.21
2022-09-01T06:07:16.511Z,13.32
2022-09-01T06:09:48.839Z,13.42
2022-09-01T06:12:23.385Z,13.55
2022-09-01T06:14:53.862Z,13.66
2022-09-01T06:17:25.467Z,13.73
2022-09-01T06:19:56.787Z,13.82
2022-09-01T06:22:28.585Z,13.91
2022-09-01T06:25:02.394Z,14.00
2022-09-01T06:27:35.746Z,14.08
2022-09-01T06:30:05.108Z,14.17
2022-09-01T06:32:38.669Z,14.25
2022-09-01T06:35:09.316Z,14.33
2022-09-01T06:37:39.384Z,14.42
2022-09-01T06:40:17.255Z,14.52
2022-09-01T06:42:47.556Z,14.63
2022-09-01T06:45:17.816Z,14.72
2022-09-01T06:47:47.588Z,14.82
2022-09-01T06:55:59.930Z,15.17
2022-09-01T06:58:29.694Z,15.29
2022-09-01T07:00:57.734Z,15.41
2022-09-01T07:03:26.647Z,15.51
2022-09-01T07:12:37.052Z,15.98
2022-09-01T07:17:55.751Z,16.24
2022-09-01T07:20:27.629Z,16.38
2022-09-01T07:28:42.495Z,16.69
2022-09-01T07:39:51.365Z,17.03
2022-09-01T07:42:31.191Z,15.76
2022-09-01T07:42:55.516Z,16.64
2022-09-01T07:45:28.887Z,17.25
2022-09-01T07:48:06.798Z,17.33
2022-09-01T07:53:36.437Z,17.55
2022-09-01T07:56:09.633Z,17.63
2022-09-01T07:58:42.299Z,17.68
2022-09-01T08:01:22.106Z,17.70
2022-09-01T08:03:54.093Z,17.72
2022-09-01T08:06:27.869Z,17.74
2022-09-01T08:09:00.919Z,17.76
2022-09-01T08:12:00.655Z,17.80
2022-09-01T08:14:21.172Z,17.85
2022-09-01T08:16:53.247Z,17.91
2022-09-01T08:19:21.931Z,18.00
2022-09-01T08:22:05.871Z,18.11
2022-09-01T08:28:00.449Z,18.38
2022-09-01T08:30:30.324Z,18.49
2022-09-01T08:33:10.233Z,18.60
2022-09-01T08:35:41.793Z,18.69
2022-09-01T08:38:10.454Z,18.80
2022-09-01T08:40:40.923Z,18.92
2022-09-01T08:43:24.972Z,18.99
2022-09-01T08:45:57.025Z,19.05
2022-09-01T08:49:23.521Z,19.05
2022-09-01T08:51:39.243Z,18.98
2022-09-01T08:54:07.609Z,18.85
2022-09-01T08:56:37.286Z,18.72
2022-09-01T08:59:09.852Z,18.58
2022-09-01T09:02:34.200Z,18.38
2022-09-01T09:05:21.817Z,18.22
2022-09-01T09:08:07.339Z,18.08
2022-09-01T09:10:49.500Z,17.97
2022-09-01T09:13:40.537Z,17.90
2022-09-01T09:16:18.493Z,17.90
2022-09-01T09:19:25.057Z,18.00
2022-09-01T09:21:55.019Z,18.16
2022-09-01T09:24:47.483Z,18.31
2022-09-01T09:27:35.627Z,18.47
2022-09-01T09:30:26.581Z,18.65
2022-09-01T09:35:55.181Z,19.00
2022-09-01T09:38:33.834Z,19.10
2022-09-01T09:41:18.836Z,19.22
2022-09-01T09:44:03.057Z,19.35
2022-09-01T09:46:40.595Z,19.51
2022-09-01T09:49:35.954Z,19.66
2022-09-01T09:52:09.026Z,19.78
2022-09-01T09:54:40.760Z,19.82
2022-09-01T09:57:08.755Z,19.82
2022-09-01T09:59:57.614Z,19.78
2022-09-01T10:02:32.339Z,19.69
2022-09-01T10:05:48.090Z,19.62
2022-09-01T10:08:28.452Z,19.56
2022-09-01T10:10:58.758Z,19.58
2022-09-01T10:13:33.099Z,19.63
2022-09-01T10:16:10.526Z,19.71
2022-09-01T10:18:53.285Z,19.80
2022-09-01T10:21:33.502Z,19.90
2022-09-01T10:24:20.392Z,19.98
2022-09-01T10:26:54.833Z,20.05
2022-09-01T10:29:48.274Z,20.11
2022-09-01T10:32:35.230Z,20.12
2022-09-01T10:35:08.794Z,20.09
2022-09-01T10:37:38.128Z,20.03
2022-09-01T10:40:20.521Z,19.99
2022-09-01T10:42:58.130Z,19.96
2022-09-01T10:45:38.501Z,19.92
2022-09-01T10:48:48.813Z,19.86
2022-09-01T10:51:21.271Z,19.78
2022-09-01T10:53:52.001Z,19.76
2022-09-01T10:56:44.368Z,19.77
2022-09-01T10:59:50.214Z,19.78
2022-09-01T11:02:25.807Z,19.77
2022-09-01T11:04:55.070Z,19.75
2022-09-01T11:07:33.575Z,19.76
2022-09-01T11:10:36.079Z,19.80
2022-09-01T11:13:29.256Z,19.88
2022-09-01T11:19:47.994Z,20.10
2022-09-01T11:22:23.440Z,20.13
2022-09-01T11:25:15.353Z,20.11
2022-09-01T11:27:49.757Z,20.08
2022-09-01T11:30:53.073Z,20.04
2022-09-01T11:33:47.971Z,19.99
2022-09-01T11:36:37.800Z,19.97
2022-09-01T11:39:23.327Z,20.00
2022-09-01T11:42:14.623Z,20.02
2022-09-01T11:45:03.525Z,19.99
2022-09-01T11:47:33.831Z,19.91
2022-09-01T11:50:22.167Z,19.84
2022-09-01T11:53:13.538Z,19.81
2022-09-01T11:55:53.549Z,19.86
2022-09-01T11:58:34.744Z,19.96
2022-09-01T12:01:20.226Z,20.09
2022-09-01T12:03:51.422Z,20.20
2022-09-01T12:06:27.301Z,20.29
2022-09-01T12:09:05.883Z,20.35
2022-09-01T12:11:36.459Z,20.37
2022-09-01T12:14:11.837Z,20.36
2022-09-01T12:16:42.787Z,20.33
2022-09-01T12:19:24.595Z,20.28
2022-09-01T12:22:00.589Z,20.22
2022-09-01T12:24:35.433Z,20.17
2022-09-01T12:27:05.355Z,20.14
2022-09-01T12:29:33.873Z,20.15
2022-09-01T12:32:02.559Z,20.18
2022-09-01T12:34:52.826Z,20.24
2022-09-01T12:37:26.731Z,20.32
2022-09-01T12:39:57.851Z,20.38
2022-09-01T12:42:38.924Z,20.46
2022-09-01T12:45:11.023Z,20.54
2022-09-01T12:47:48.182Z,20.61
2022-09-01T12:50:16.946Z,20.70
2022-09-01T12:52:54.947Z,20.78
2022-09-01T12:55:49.737Z,20.84
2022-09-01T12:58:35.151Z,20.89
2022-09-01T13:01:09.214Z,20.92
2022-09-01T13:04:11.939Z,20.89
2022-09-01T13:06:40.168Z,20.85
2022-09-01T13:09:08.652Z,20.82
2022-09-01T13:14:25.792Z,20.72
2022-09-01T13:16:54.276Z,20.69
2022-09-01T13:19:28.687Z,20.70
2022-09-01T13:21:58.890Z,20.76
2022-09-01T13:24:30.391Z,20.82
2022-09-01T13:29:48.343Z,20.98
2022-09-01T13:32:18.839Z,21.05
2022-09-01T13:34:52.914Z,21.12
2022-09-01T13:37:22.275Z,21.16
2022-09-01T13:39:50.674Z,21.15
2022-09-01T13:42:18.651Z,21.11
2022-09-01T13:44:52.563Z,21.04
2022-09-01T13:47:29.293Z,20.95
2022-09-01T13:50:10.460Z,20.88
2022-09-01T13:52:42.839Z,20.87
2022-09-01T13:55:39.475Z,20.91
2022-09-01T13:58:07.529Z,21.02
2022-09-01T14:00:39.891Z,21.13
2022-09-01T14:03:21.018Z,21.19
2022-09-01T14:05:55.009Z,21.21
2022-09-01T14:08:23.133Z,21.18
2022-09-01T14:10:53.533Z,21.14
2022-09-01T14:13:23.515Z,21.08
2022-09-01T14:15:55.200Z,20.99
2022-09-01T14:18:23.721Z,20.87
2022-09-01T14:20:52.231Z,20.73
2022-09-01T14:23:20.256Z,20.61
2022-09-01T14:25:50.358Z,20.51
2022-09-01T14:28:20.474Z,20.43
2022-09-01T14:33:24.570Z,20.30
2022-09-01T14:35:54.387Z,20.28
2022-09-01T14:38:22.424Z,20.28
2022-09-01T14:40:52.183Z,20.31
2022-09-01T14:43:20.714Z,20.31
2022-09-01T14:45:49.464Z,20.29
2022-09-01T14:48:18.693Z,20.26
2022-09-01T14:50:49.809Z,20.22
2022-09-01T14:53:20.970Z,20.18
2022-09-01T14:55:51.475Z,20.12
2022-09-01T14:58:23.799Z,20.06
2022-09-01T15:00:52.501Z,20.00
2022-09-01T15:03:22.843Z,19.94
2022-09-01T15:05:51.395Z,19.89
2022-09-01T15:08:20.353Z,19.82
2022-09-01T15:10:48.309Z,19.74
2022-09-01T15:13:16.646Z,19.66
2022-09-01T15:15:45.482Z,19.57
2022-09-01T15:18:13.759Z,19.49
2022-09-01T15:20:47.175Z,19.41
2022-09-01T15:23:23.028Z,19.36
2022-09-01T15:25:57.987Z,19.28
2022-09-01T15:28:25.944Z,19.23
2022-09-01T15:30:54.666Z,19.21
2022-09-01T15:33:23.058Z,19.21
2022-09-01T15:35:51.144Z,19.24
2022-09-01T15:38:30.310Z,19.29
2022-09-01T15:41:21.169Z,19.36
2022-09-01T15:43:51.092Z,19.43
2022-09-01T15:46:20.254Z,19.50
2022-09-01T15:48:48.473Z,19.57
2022-09-01T15:51:22.287Z,19.63
2022-09-01T15:53:51.425Z,19.67
2022-09-01T15:56:20.578Z,19.70
2022-09-01T15:59:00.925Z,19.74
2022-09-01T16:01:33.293Z,19.78
2022-09-01T16:04:05.021Z,19.81
2022-09-01T16:06:39.721Z,19.83
2022-09-01T16:09:08.916Z,19.85
2022-09-01T16:11:36.920Z,19.85
2022-09-01T16:14:05.640Z,19.86
2022-09-01T16:16:52.621Z,19.87
2022-09-01T16:19:23.163Z,19.86
2022-09-01T16:22:13.091Z,19.84
2022-09-01T16:24:46.107Z,19.82
2022-09-01T16:27:18.336Z,19.80
2022-09-01T16:29:54.989Z,19.76
2022-09-01T16:32:23.822Z,19.72
2022-09-01T16:34:52.685Z,19.69
2022-09-01T16:37:40.493Z,19.64
2022-09-01T16:40:30.122Z,19.60
2022-09-01T16:43:03.071Z,19.55
2022-09-01T16:46:19.654Z,19.47
2022-09-01T16:49:23.441Z,19.38
2022-09-01T16:52:16.968Z,19.27
2022-09-01T16:55:22.966Z,19.17
2022-09-01T16:57:59.282Z,19.06
2022-09-01T17:00:40.085Z,18.96
2022-09-01T17:03:19.541Z,18.86
2022-09-01T17:06:22.163Z,18.75
2022-09-01T17:08:56.584Z,18.64
2022-09-01T17:11:39.732Z,18.53
2022-09-01T17:14:10.599Z,18.41
2022-09-01T17:16:42.507Z,18.31
2022-09-01T17:19:16.991Z,18.20
2022-09-01T17:21:53.568Z,18.09
2022-09-01T17:24:42.960Z,17.98
2022-09-01T17:27:37.056Z,17.87
2022-09-01T17:30:07.288Z,17.76
2022-09-01T17:32:41.508Z,17.67
2022-09-01T17:35:30.061Z,17.57
2022-09-01T17:38:23.496Z,17.47
2022-09-01T17:41:36.356Z,17.38
2022-09-01T17:44:16.141Z,17.28
2022-09-01T17:47:12.833Z,17.20
2022-09-01T17:50:18.202Z,17.12
2022-09-01T17:53:10.180Z,17.03
2022-09-01T17:55:49.354Z,16.94
2022-09-01T17:58:27.423Z,16.85
2022-09-01T18:01:05.142Z,16.78
2022-09-01T18:04:06.015Z,16.70
2022-09-01T18:06:51.555Z,16.60
2022-09-01T18:09:24.524Z,16.52
2022-09-01T18:12:05.202Z,16.43
2022-09-01T18:15:11.060Z,16.34
2022-09-01T18:17:45.827Z,16.25
2022-09-01T18:20:27.515Z,16.18
2022-09-01T18:23:18.318Z,16.09
2022-09-01T18:25:55.378Z,16.01
2022-09-01T18:28:23.955Z,15.92
2022-09-01T18:31:01.764Z,15.86
2022-09-01T18:33:42.203Z,15.77
2022-09-01T18:36:34.069Z,15.69
2022-09-01T18:39:12.198Z,15.62
2022-09-01T18:41:52.631Z,15.58
2022-09-01T18:44:45.347Z,15.52
2022-09-01T18:47:30.055Z,15.43
2022-09-01T18:50:28.840Z,15.36
2022-09-01T18:53:27.533Z,15.27
2022-09-01T18:56:06.207Z,15.18
2022-09-01T18:58:50.032Z,15.10
2022-09-01T19:01:30.933Z,15.02
2022-09-01T19:04:14.971Z,14.94
2022-09-01T19:07:03.722Z,14.86
2022-09-01T19:10:13.017Z,14.81
2022-09-01T19:12:53.110Z,14.75
2022-09-01T19:15:37.487Z,14.67
2022-09-01T19:18:13.591Z,14.59
2022-09-01T19:20:56.917Z,14.52
2022-09-01T19:23:27.827Z,14.45
2022-09-01T19:26:03.714Z,14.40
2022-09-01T19:28:50.616Z,14.34
2022-09-01T19:31:31.234Z,14.28
2022-09-01T19:34:19.294Z,14.22
2022-09-01T19:36:57.151Z,14.16
2022-09-01T19:39:29.637Z,14.10
2022-09-01T19:42:03.556Z,14.04
2022-09-01T19:44:54.260Z,13.99
2022-09-01T19:47:47.660Z,13.93
2022-09-01T19:50:33.595Z,13.87
2022-09-01T19:53:20.894Z,13.82
2022-09-01T19:56:22.227Z,13.77
2022-09-01T19:58:51.864Z,13.73
2022-09-01T20:02:00.223Z,13.70
2022-09-01T20:04:32.280Z,13.64
2022-09-01T20:07:02.061Z,13.60
2022-09-01T20:09:54.959Z,13.54
2022-09-01T20:12:31.412Z,13.49
2022-09-01T20:15:32.608Z,13.45
2022-09-01T20:18:06.700Z,13.40
2022-09-01T20:20:48.706Z,13.37
2022-09-01T20:23:24.575Z,13.33
2022-09-01T20:26:01.738Z,13.30
2022-09-01T20:28:32.565Z,13.24
2022-09-01T20:31:07.669Z,13.19
2022-09-01T20:33:49.757Z,13.14
2022-09-01T20:36:50.327Z,13.09
2022-09-01T20:39:52.722Z,13.04
2022-09-01T20:42:35.383Z,12.99
2022-09-01T20:45:25.241Z,12.93
2022-09-01T20:48:03.282Z,12.88
2022-09-01T20:50:43.483Z,12.83
2022-09-01T20:53:26.605Z,12.79
2022-09-01T20:56:14.497Z,12.74
2022-09-01T20:58:44.376Z,12.68
2022-09-01T21:01:18.012Z,12.65
2022-09-01T21:03:53.668Z,12.61
2022-09-01T21:06:49.280Z,12.55
2022-09-01T21:09:41.134Z,12.49
2022-09-01T21:12:36.801Z,12.44
2022-09-01T21:15:36.756Z,12.40
2022-09-01T21:18:23.966Z,12.36
2022-09-01T21:21:07.071Z,12.40
2022-09-01T21:23:35.165Z,12.41
2022-09-01T21:26:03.386Z,12.39
2022-09-01T21:28:31.608Z,12.35
2022-09-01T21:31:00.237Z,12.33
2022-09-01T21:33:31.162Z,12.30
2022-09-01T21:36:00.453Z,12.29
2022-09-01T21:38:30.168Z,12.26
2022-09-01T21:41:00.406Z,12.21
2022-09-01T21:43:46.582Z,12.17
2022-09-01T21:46:16.548Z,12.14
2022-09-01T21:48:44.761Z,12.11
2022-09-01T21:51:12.740Z,12.09
2022-09-01T21:53:40.889Z,12.05
2022-09-01T21:56:09.027Z,12.02
2022-09-01T21:58:38.672Z,11.99
2022-09-01T22:01:07.890Z,11.96
2022-09-01T22:03:38.556Z,11.95
2022-09-01T22:06:11.696Z,11.94
2022-09-01T22:08:39.666Z,11.93
2022-09-01T22:11:10.870Z,11.90
2022-09-01T22:13:39.182Z,11.86
2022-09-01T22:16:07.582Z,11.83
2022-09-01T22:18:35.664Z,11.81
2022-09-01T22:21:09.805Z,11.78
2022-09-01T22:23:39.069Z,11.74
2022-09-01T22:26:12.417Z,11.70
2022-09-01T22:28:43.072Z,11.67
2022-09-01T22:31:20.444Z,11.64
2022-09-01T22:33:48.994Z,11.62
2022-09-01T22:36:30.952Z,11.60
2022-09-01T22:39:00.046Z,11.57
2022-09-01T22:41:30.054Z,11.54
2022-09-01T22:44:00.042Z,11.53
2022-09-01T22:46:31.259Z,11.50
2022-09-01T22:49:00.414Z,11.52
2022-09-01T22:51:28.897Z,11.53
2022-09-01T22:53:57.018Z,11.43
2022-09-01T22:56:28.727Z,11.37
2022-09-01T22:59:01.775Z,11.32
2022-09-01T23:01:33.645Z,11.27
2022-09-01T23:04:05.070Z,11.23
2022-09-01T23:06:35.517Z,11.20
2022-09-01T23:09:04.304Z,11.17
2022-09-01T23:11:32.527Z,11.13
2022-09-01T23:14:00.888Z,11.12
2022-09-01T23:16:29.543Z,11.10
2022-09-01T23:18:58.195Z,11.09
2022-09-01T23:21:29.661Z,11.07
2022-09-01T23:23:59.095Z,11.06
2022-09-01T23:26:29.141Z,11.03
2022-09-01T23:28:58.133Z,11.00
2022-09-01T23:31:29.493Z,10.97
2022-09-01T23:33:58.195Z,10.96
2022-09-01T23:36:28.311Z,10.93
2022-09-01T23:38:56.961Z,10.90
2022-09-01T23:41:31.109Z,10.88
2022-09-01T23:44:02.965Z,10.85
2022-09-01T23:46:35.573Z,10.81
2022-09-01T23:49:04.984Z,10.79
2022-09-01T23:51:33.678Z,10.76
2022-09-01T23:54:01.719Z,10.74
2022-09-01T23:56:30.526Z,10.73
2022-09-01T23:58:59.924Z,10.71
